Hauptseite
METAR-TAF:

METAR-TAF

Flughäfen :

Flughafen Cuneo

Cuneo, Italien

Breite: 44-32-47N, Länge: 007-37-20E, Höhe: 386 m

Beobachtung

Neuester Wetterbericht von vor 7 Stunden und 23 Minuten, um 19:50 UTC
Wind 7 kt aus Nordwest
Temperatur 8°C
Luftfeuchtigkeit 93%
Luftdruck 1027 hPa
Sichtweite: 7000 m
Durchbrochene Bewölkung in der Höhe von 1500 ft
Sprühregen

METAR: LIMZ 161950Z 32007KT 7000 DZ BKN015 08/07 Q1027

Zeit: 04:13 (03:13 UTC)

Prognose

Neuester Wetterbericht von vor 10 Stunden und 13 Minuten, um 17:00 UTC
Gültige Prognose vom 16 um 18 UTC bis 17 um 18 UTC
Wind 5 kt aus Nord
Sichtweite: 4000 m
Geschlossene Wolkendecke in der Höhe von 2000 ft
feuchter Dunst
Zeitweise
vom 16 um 18 UTC bis 16 um 24 UTC
Regen

TAF: LIMZ 161700Z 1618/1718 36005KT 4000 BR OVC020 TEMPO 1618/1624 RA

Wetterbeobachtungen und Prognosen von mehr als 4000 Flughäfen (METAR und TAF Bericht).

Die verfügbaren Stationen werden durch gelbe und rote Markierungen auf der Karte dargestellt.

Führen Sie die Maus auf sie, um den Namen der Station zu sehen.

Darauf klicken, um die Beobachtung von Wetterbeobachtungen und Prognosen zu sehen.

Um die Karte zu ändern : klicken Sie auf den grünen Tasten mit einem schwarzen Kreuz Zum Vergrößern, auf den grünen Button mit einem Gedankenstrich zu verkleinern, oder auf die grünen Pfeile für benachbarte Karten.


METAR-TAF: